sensor_id;sensor_type;location;lat;lon;timestamp;temperature;humidity
70269;DHT22;58514;48.398;-4.274;2023-03-14T00:01:52;9.30;99.90
70269;DHT22;58514;48.398;-4.274;2023-03-14T00:04:17;9.30;99.90
70269;DHT22;58514;48.398;-4.274;2023-03-14T00:06:43;9.30;99.90
70269;DHT22;58514;48.398;-4.274;2023-03-14T00:09:08;9.20;99.90
70269;DHT22;58514;48.398;-4.274;2023-03-14T00:11:34;9.20;99.90
70269;DHT22;58514;48.398;-4.274;2023-03-14T00:13:59;9.20;99.90
70269;DHT22;58514;48.398;-4.274;2023-03-14T00:16:25;9.20;99.90
70269;DHT22;58514;48.398;-4.274;2023-03-14T00:18:51;9.20;99.90
70269;DHT22;58514;48.398;-4.274;2023-03-14T00:21:17;9.20;99.90
70269;DHT22;58514;48.398;-4.274;2023-03-14T00:23:43;9.20;99.90
70269;DHT22;58514;48.398;-4.274;2023-03-14T00:26:09;9.20;99.90
70269;DHT22;58514;48.398;-4.274;2023-03-14T00:28:35;9.20;99.90
70269;DHT22;58514;48.398;-4.274;2023-03-14T00:31:04;9.20;99.90
70269;DHT22;58514;48.398;-4.274;2023-03-14T00:33:30;9.20;99.90
70269;DHT22;58514;48.398;-4.274;2023-03-14T00:35:56;9.20;99.90
70269;DHT22;58514;48.398;-4.274;2023-03-14T00:38:22;9.20;99.90
70269;DHT22;58514;48.398;-4.274;2023-03-14T00:40:49;9.20;99.90
70269;DHT22;58514;48.398;-4.274;2023-03-14T00:43:15;9.10;99.90
70269;DHT22;58514;48.398;-4.274;2023-03-14T00:45:41;9.10;99.90
70269;DHT22;58514;48.398;-4.274;2023-03-14T00:48:07;9.10;99.90
70269;DHT22;58514;48.398;-4.274;2023-03-14T00:50:32;9.10;99.90
70269;DHT22;58514;48.398;-4.274;2023-03-14T00:52:58;9.10;99.90
70269;DHT22;58514;48.398;-4.274;2023-03-14T00:55:24;9.00;99.90
70269;DHT22;58514;48.398;-4.274;2023-03-14T00:57:49;9.00;99.90
70269;DHT22;58514;48.398;-4.274;2023-03-14T01:00:15;8.90;99.90
70269;DHT22;58514;48.398;-4.274;2023-03-14T01:02:41;8.90;99.90
70269;DHT22;58514;48.398;-4.274;2023-03-14T01:05:06;8.90;99.90
70269;DHT22;58514;48.398;-4.274;2023-03-14T01:07:32;8.90;99.90
70269;DHT22;58514;48.398;-4.274;2023-03-14T01:09:58;8.90;99.90
70269;DHT22;58514;48.398;-4.274;2023-03-14T01:12:24;8.80;99.90
70269;DHT22;58514;48.398;-4.274;2023-03-14T01:14:49;8.80;99.90
70269;DHT22;58514;48.398;-4.274;2023-03-14T01:17:15;8.80;99.90
70269;DHT22;58514;48.398;-4.274;2023-03-14T01:19:40;8.80;99.90
70269;DHT22;58514;48.398;-4.274;2023-03-14T01:22:06;8.80;99.90
70269;DHT22;58514;48.398;-4.274;2023-03-14T01:24:31;8.80;99.90
70269;DHT22;58514;48.398;-4.274;2023-03-14T01:26:57;8.70;99.90
70269;DHT22;58514;48.398;-4.274;2023-03-14T01:29:22;8.70;99.90
70269;DHT22;58514;48.398;-4.274;2023-03-14T01:31:48;8.70;99.90
70269;DHT22;58514;48.398;-4.274;2023-03-14T01:34:13;8.70;99.90
70269;DHT22;58514;48.398;-4.274;2023-03-14T01:36:39;8.70;99.90
70269;DHT22;58514;48.398;-4.274;2023-03-14T01:39:04;8.60;99.90
70269;DHT22;58514;48.398;-4.274;2023-03-14T01:41:31;8.60;99.90
70269;DHT22;58514;48.398;-4.274;2023-03-14T01:43:57;8.50;99.90
70269;DHT22;58514;48.398;-4.274;2023-03-14T01:53:48;8.40;99.90
70269;DHT22;58514;48.398;-4.274;2023-03-14T01:56:15;8.40;99.90
70269;DHT22;58514;48.398;-4.274;2023-03-14T01:58:41;8.40;99.90
70269;DHT22;58514;48.398;-4.274;2023-03-14T02:01:08;8.30;99.90
70269;DHT22;58514;48.398;-4.274;2023-03-14T02:03:35;8.30;99.90
70269;DHT22;58514;48.398;-4.274;2023-03-14T02:06:04;8.30;99.90
70269;DHT22;58514;48.398;-4.274;2023-03-14T02:08:31;8.20;99.90
70269;DHT22;58514;48.398;-4.274;2023-03-14T02:10:58;8.20;99.90
70269;DHT22;58514;48.398;-4.274;2023-03-14T02:13:24;8.20;99.90
70269;DHT22;58514;48.398;-4.274;2023-03-14T02:15:49;8.20;99.90
70269;DHT22;58514;48.398;-4.274;2023-03-14T02:18:15;8.20;99.90
70269;DHT22;58514;48.398;-4.274;2023-03-14T02:23:10;8.10;99.90
70269;DHT22;58514;48.398;-4.274;2023-03-14T02:25:48;8.10;99.90
70269;DHT22;58514;48.398;-4.274;2023-03-14T02:28:15;8.10;99.90
70269;DHT22;58514;48.398;-4.274;2023-03-14T02:30:40;8.10;99.90
70269;DHT22;58514;48.398;-4.274;2023-03-14T02:33:08;8.10;99.90
70269;DHT22;58514;48.398;-4.274;2023-03-14T02:35:56;8.00;99.90
70269;DHT22;58514;48.398;-4.274;2023-03-14T02:38:30;8.00;99.90
70269;DHT22;58514;48.398;-4.274;2023-03-14T02:40:56;8.00;99.90
70269;DHT22;58514;48.398;-4.274;2023-03-14T02:43:22;8.00;99.90
70269;DHT22;58514;48.398;-4.274;2023-03-14T02:45:48;8.00;99.90
70269;DHT22;58514;48.398;-4.274;2023-03-14T02:48:56;8.00;99.90
70269;DHT22;58514;48.398;-4.274;2023-03-14T02:51:02;8.00;99.90
70269;DHT22;58514;48.398;-4.274;2023-03-14T02:53:29;8.00;99.90
70269;DHT22;58514;48.398;-4.274;2023-03-14T02:55:55;7.90;99.90
70269;DHT22;58514;48.398;-4.274;2023-03-14T02:58:21;7.90;99.90
70269;DHT22;58514;48.398;-4.274;2023-03-14T03:00:46;7.80;99.90
70269;DHT22;58514;48.398;-4.274;2023-03-14T03:03:12;7.80;99.90
70269;DHT22;58514;48.398;-4.274;2023-03-14T03:05:37;7.70;99.90
70269;DHT22;58514;48.398;-4.274;2023-03-14T03:08:03;7.70;99.90
70269;DHT22;58514;48.398;-4.274;2023-03-14T03:10:29;7.60;99.90
70269;DHT22;58514;48.398;-4.274;2023-03-14T03:12:54;7.60;99.90
70269;DHT22;58514;48.398;-4.274;2023-03-14T03:15:20;7.50;99.90
70269;DHT22;58514;48.398;-4.274;2023-03-14T03:17:46;7.50;99.90
70269;DHT22;58514;48.398;-4.274;2023-03-14T03:20:11;7.40;99.90
70269;DHT22;58514;48.398;-4.274;2023-03-14T03:22:37;7.50;99.90
70269;DHT22;58514;48.398;-4.274;2023-03-14T03:25:03;7.40;99.90
70269;DHT22;58514;48.398;-4.274;2023-03-14T03:27:32;7.40;99.90
70269;DHT22;58514;48.398;-4.274;2023-03-14T03:29:58;7.40;99.90
70269;DHT22;58514;48.398;-4.274;2023-03-14T03:32:24;7.40;99.90
70269;DHT22;58514;48.398;-4.274;2023-03-14T03:34:49;7.40;99.90
70269;DHT22;58514;48.398;-4.274;2023-03-14T03:37:15;7.40;99.90
70269;DHT22;58514;48.398;-4.274;2023-03-14T03:39:40;7.30;99.90
70269;DHT22;58514;48.398;-4.274;2023-03-14T03:42:06;7.30;99.90
70269;DHT22;58514;48.398;-4.274;2023-03-14T03:44:31;7.30;99.90
70269;DHT22;58514;48.398;-4.274;2023-03-14T03:46:57;7.30;99.90
70269;DHT22;58514;48.398;-4.274;2023-03-14T03:49:23;7.30;99.90
70269;DHT22;58514;48.398;-4.274;2023-03-14T03:51:48;7.40;99.90
70269;DHT22;58514;48.398;-4.274;2023-03-14T03:54:14;7.30;99.90
70269;DHT22;58514;48.398;-4.274;2023-03-14T03:56:39;7.40;99.90
70269;DHT22;58514;48.398;-4.274;2023-03-14T03:59:05;7.30;99.90
70269;DHT22;58514;48.398;-4.274;2023-03-14T04:01:30;7.30;99.90
70269;DHT22;58514;48.398;-4.274;2023-03-14T04:03:56;7.30;99.90
70269;DHT22;58514;48.398;-4.274;2023-03-14T04:06:21;7.30;99.90
70269;DHT22;58514;48.398;-4.274;2023-03-14T04:08:47;7.30;99.90
70269;DHT22;58514;48.398;-4.274;2023-03-14T04:11:12;7.30;99.90
70269;DHT22;58514;48.398;-4.274;2023-03-14T04:13:38;7.40;99.90
70269;DHT22;58514;48.398;-4.274;2023-03-14T04:16:03;7.30;99.90
70269;DHT22;58514;48.398;-4.274;2023-03-14T04:18:29;7.30;99.90
70269;DHT22;58514;48.398;-4.274;2023-03-14T04:20:56;7.30;99.90
70269;DHT22;58514;48.398;-4.274;2023-03-14T04:23:22;7.30;99.90
70269;DHT22;58514;48.398;-4.274;2023-03-14T04:25:52;7.20;99.90
70269;DHT22;58514;48.398;-4.274;2023-03-14T04:28:18;7.30;99.90
70269;DHT22;58514;48.398;-4.274;2023-03-14T04:30:44;7.20;99.90
70269;DHT22;58514;48.398;-4.274;2023-03-14T04:33:09;7.20;99.90
70269;DHT22;58514;48.398;-4.274;2023-03-14T04:35:36;7.20;99.90
70269;DHT22;58514;48.398;-4.274;2023-03-14T04:38:01;7.20;99.90
70269;DHT22;58514;48.398;-4.274;2023-03-14T04:40:28;7.20;99.90
70269;DHT22;58514;48.398;-4.274;2023-03-14T04:42:53;7.20;99.90
70269;DHT22;58514;48.398;-4.274;2023-03-14T04:45:19;7.20;99.90
70269;DHT22;58514;48.398;-4.274;2023-03-14T04:47:44;7.20;99.90
70269;DHT22;58514;48.398;-4.274;2023-03-14T04:50:10;7.20;99.90
70269;DHT22;58514;48.398;-4.274;2023-03-14T04:52:36;7.20;99.90
70269;DHT22;58514;48.398;-4.274;2023-03-14T04:55:01;7.20;99.90
70269;DHT22;58514;48.398;-4.274;2023-03-14T04:57:27;7.20;99.90
70269;DHT22;58514;48.398;-4.274;2023-03-14T04:59:52;7.20;99.90
70269;DHT22;58514;48.398;-4.274;2023-03-14T05:02:18;7.20;99.90
70269;DHT22;58514;48.398;-4.274;2023-03-14T05:04:43;7.20;99.90
70269;DHT22;58514;48.398;-4.274;2023-03-14T05:07:09;7.20;99.90
70269;DHT22;58514;48.398;-4.274;2023-03-14T05:09:34;7.20;99.90
70269;DHT22;58514;48.398;-4.274;2023-03-14T05:12:00;7.20;99.90
70269;DHT22;58514;48.398;-4.274;2023-03-14T05:14:26;7.10;99.90
70269;DHT22;58514;48.398;-4.274;2023-03-14T05:16:51;7.10;99.90
70269;DHT22;58514;48.398;-4.274;2023-03-14T05:19:17;7.10;99.90
70269;DHT22;58514;48.398;-4.274;2023-03-14T05:21:42;7.10;99.90
70269;DHT22;58514;48.398;-4.274;2023-03-14T05:24:08;7.10;99.90
70269;DHT22;58514;48.398;-4.274;2023-03-14T05:26:33;7.00;99.90
70269;DHT22;58514;48.398;-4.274;2023-03-14T05:28:59;7.10;99.90
70269;DHT22;58514;48.398;-4.274;2023-03-14T05:31:24;7.00;99.90
70269;DHT22;58514;48.398;-4.274;2023-03-14T05:33:50;7.00;99.90
70269;DHT22;58514;48.398;-4.274;2023-03-14T05:36:15;7.00;99.90
70269;DHT22;58514;48.398;-4.274;2023-03-14T05:38:41;7.00;99.90
70269;DHT22;58514;48.398;-4.274;2023-03-14T05:41:07;7.00;99.90
70269;DHT22;58514;48.398;-4.274;2023-03-14T05:43:32;6.90;99.90
70269;DHT22;58514;48.398;-4.274;2023-03-14T05:45:58;7.00;99.90
70269;DHT22;58514;48.398;-4.274;2023-03-14T05:48:23;6.90;99.90
70269;DHT22;58514;48.398;-4.274;2023-03-14T05:50:54;7.00;99.90
70269;DHT22;58514;48.398;-4.274;2023-03-14T05:53:19;6.90;99.90
70269;DHT22;58514;48.398;-4.274;2023-03-14T05:55:45;7.00;99.90
70269;DHT22;58514;48.398;-4.274;2023-03-14T05:58:10;7.00;99.90
70269;DHT22;58514;48.398;-4.274;2023-03-14T06:00:36;7.00;99.90
70269;DHT22;58514;48.398;-4.274;2023-03-14T06:03:01;7.00;99.90
70269;DHT22;58514;48.398;-4.274;2023-03-14T06:05:27;7.00;99.90
70269;DHT22;58514;48.398;-4.274;2023-03-14T06:07:52;7.00;99.90
70269;DHT22;58514;48.398;-4.274;2023-03-14T06:10:18;7.00;99.90
70269;DHT22;58514;48.398;-4.274;2023-03-14T06:12:44;7.00;99.90
70269;DHT22;58514;48.398;-4.274;2023-03-14T06:15:09;7.00;99.90
70269;DHT22;58514;48.398;-4.274;2023-03-14T06:17:35;7.00;99.90
70269;DHT22;58514;48.398;-4.274;2023-03-14T06:20:00;7.00;99.90
70269;DHT22;58514;48.398;-4.274;2023-03-14T06:22:26;7.00;99.90
70269;DHT22;58514;48.398;-4.274;2023-03-14T06:24:52;7.00;99.90
70269;DHT22;58514;48.398;-4.274;2023-03-14T06:27:17;7.00;99.90
70269;DHT22;58514;48.398;-4.274;2023-03-14T06:29:43;7.00;99.90
70269;DHT22;58514;48.398;-4.274;2023-03-14T06:32:08;7.00;99.90
70269;DHT22;58514;48.398;-4.274;2023-03-14T06:34:34;7.00;99.90
70269;DHT22;58514;48.398;-4.274;2023-03-14T06:36:59;7.00;99.90
70269;DHT22;58514;48.398;-4.274;2023-03-14T06:39:25;7.00;99.90
70269;DHT22;58514;48.398;-4.274;2023-03-14T06:41:50;7.00;99.90
70269;DHT22;58514;48.398;-4.274;2023-03-14T06:44:16;7.00;99.90
70269;DHT22;58514;48.398;-4.274;2023-03-14T06:46:41;7.00;99.90
70269;DHT22;58514;48.398;-4.274;2023-03-14T06:49:07;7.00;99.90
70269;DHT22;58514;48.398;-4.274;2023-03-14T06:51:33;7.00;99.90
70269;DHT22;58514;48.398;-4.274;2023-03-14T06:53:59;7.00;99.90
70269;DHT22;58514;48.398;-4.274;2023-03-14T06:56:24;7.00;99.90
70269;DHT22;58514;48.398;-4.274;2023-03-14T06:58:50;7.00;99.90
70269;DHT22;58514;48.398;-4.274;2023-03-14T07:01:26;7.10;99.90
70269;DHT22;58514;48.398;-4.274;2023-03-14T07:03:52;7.10;99.90
70269;DHT22;58514;48.398;-4.274;2023-03-14T07:06:17;7.10;99.90
70269;DHT22;58514;48.398;-4.274;2023-03-14T07:08:43;7.10;99.90
70269;DHT22;58514;48.398;-4.274;2023-03-14T07:11:09;7.10;99.90
70269;DHT22;58514;48.398;-4.274;2023-03-14T07:13:36;7.20;99.90
70269;DHT22;58514;48.398;-4.274;2023-03-14T07:16:02;7.20;99.90
70269;DHT22;58514;48.398;-4.274;2023-03-14T07:18:27;7.20;99.90
70269;DHT22;58514;48.398;-4.274;2023-03-14T07:20:53;7.20;99.90
70269;DHT22;58514;48.398;-4.274;2023-03-14T07:23:19;7.20;99.90
70269;DHT22;58514;48.398;-4.274;2023-03-14T07:25:44;7.20;99.90
70269;DHT22;58514;48.398;-4.274;2023-03-14T07:28:10;7.20;99.90
70269;DHT22;58514;48.398;-4.274;2023-03-14T07:30:35;7.20;99.90
70269;DHT22;58514;48.398;-4.274;2023-03-14T07:33:01;7.20;99.90
70269;DHT22;58514;48.398;-4.274;2023-03-14T07:35:26;7.20;99.90
70269;DHT22;58514;48.398;-4.274;2023-03-14T07:37:52;7.20;99.90
70269;DHT22;58514;48.398;-4.274;2023-03-14T07:40:17;7.20;99.90
70269;DHT22;58514;48.398;-4.274;2023-03-14T07:42:43;7.20;99.90
70269;DHT22;58514;48.398;-4.274;2023-03-14T07:45:09;7.20;99.90
70269;DHT22;58514;48.398;-4.274;2023-03-14T07:47:35;7.20;99.90
70269;DHT22;58514;48.398;-4.274;2023-03-14T07:50:01;7.10;99.90
70269;DHT22;58514;48.398;-4.274;2023-03-14T07:52:26;7.10;99.90
70269;DHT22;58514;48.398;-4.274;2023-03-14T07:54:52;7.20;99.90
70269;DHT22;58514;48.398;-4.274;2023-03-14T07:57:17;7.20;99.90
70269;DHT22;58514;48.398;-4.274;2023-03-14T07:59:43;7.20;99.90
70269;DHT22;58514;48.398;-4.274;2023-03-14T08:02:11;7.20;99.90
70269;DHT22;58514;48.398;-4.274;2023-03-14T08:04:38;7.20;99.90
70269;DHT22;58514;48.398;-4.274;2023-03-14T08:07:04;7.30;99.90
70269;DHT22;58514;48.398;-4.274;2023-03-14T08:09:30;7.20;99.90
70269;DHT22;58514;48.398;-4.274;2023-03-14T08:11:55;7.30;99.90
70269;DHT22;58514;48.398;-4.274;2023-03-14T08:14:21;7.30;99.90
70269;DHT22;58514;48.398;-4.274;2023-03-14T08:16:49;7.30;99.90
70269;DHT22;58514;48.398;-4.274;2023-03-14T08:19:15;7.30;99.90
70269;DHT22;58514;48.398;-4.274;2023-03-14T08:21:40;7.30;99.90
70269;DHT22;58514;48.398;-4.274;2023-03-14T08:24:06;7.30;99.90
70269;DHT22;58514;48.398;-4.274;2023-03-14T08:26:31;7.40;99.90
70269;DHT22;58514;48.398;-4.274;2023-03-14T08:28:57;7.40;99.90
70269;DHT22;58514;48.398;-4.274;2023-03-14T08:31:23;7.40;99.90
70269;DHT22;58514;48.398;-4.274;2023-03-14T08:33:48;7.40;99.90
70269;DHT22;58514;48.398;-4.274;2023-03-14T08:36:14;7.40;99.90
70269;DHT22;58514;48.398;-4.274;2023-03-14T08:38:39;7.50;99.90
70269;DHT22;58514;48.398;-4.274;2023-03-14T08:41:07;7.50;99.90
70269;DHT22;58514;48.398;-4.274;2023-03-14T08:43:33;7.60;99.90
70269;DHT22;58514;48.398;-4.274;2023-03-14T08:46:00;7.60;99.90
70269;DHT22;58514;48.398;-4.274;2023-03-14T08:48:25;7.70;99.90
70269;DHT22;58514;48.398;-4.274;2023-03-14T08:50:51;7.80;99.90
70269;DHT22;58514;48.398;-4.274;2023-03-14T08:53:17;7.80;99.90
70269;DHT22;58514;48.398;-4.274;2023-03-14T08:55:43;7.90;99.90
70269;DHT22;58514;48.398;-4.274;2023-03-14T08:58:09;8.00;99.90
70269;DHT22;58514;48.398;-4.274;2023-03-14T09:00:34;8.30;99.90
70269;DHT22;58514;48.398;-4.274;2023-03-14T09:05:26;8.80;99.90
70269;DHT22;58514;48.398;-4.274;2023-03-14T09:10:17;9.50;99.90
70269;DHT22;58514;48.398;-4.274;2023-03-14T09:12:43;9.80;99.90
70269;DHT22;58514;48.398;-4.274;2023-03-14T09:15:09;10.20;99.90
70269;DHT22;58514;48.398;-4.274;2023-03-14T09:17:34;10.60;99.90
70269;DHT22;58514;48.398;-4.274;2023-03-14T09:20:00;11.00;99.90
70269;DHT22;58514;48.398;-4.274;2023-03-14T09:22:26;11.30;99.90
70269;DHT22;58514;48.398;-4.274;2023-03-14T09:24:52;11.50;99.90
70269;DHT22;58514;48.398;-4.274;2023-03-14T09:27:17;11.80;99.90
70269;DHT22;58514;48.398;-4.274;2023-03-14T09:29:43;12.00;99.90
70269;DHT22;58514;48.398;-4.274;2023-03-14T09:32:08;11.90;99.90
70269;DHT22;58514;48.398;-4.274;2023-03-14T09:34:34;11.80;99.90
70269;DHT22;58514;48.398;-4.274;2023-03-14T09:36:59;11.90;99.90
70269;DHT22;58514;48.398;-4.274;2023-03-14T09:39:25;11.90;99.90
70269;DHT22;58514;48.398;-4.274;2023-03-14T09:41:51;11.80;99.90
70269;DHT22;58514;48.398;-4.274;2023-03-14T09:44:21;11.80;99.90
70269;DHT22;58514;48.398;-4.274;2023-03-14T09:46:47;11.70;99.90
70269;DHT22;58514;48.398;-4.274;2023-03-14T09:49:20;11.70;99.90
70269;DHT22;58514;48.398;-4.274;2023-03-14T09:51:51;11.60;99.90
70269;DHT22;58514;48.398;-4.274;2023-03-14T09:54:37;11.50;99.90
70269;DHT22;58514;48.398;-4.274;2023-03-14T09:57:09;11.40;99.90
70269;DHT22;58514;48.398;-4.274;2023-03-14T09:59:36;11.30;99.90
70269;DHT22;58514;48.398;-4.274;2023-03-14T10:02:11;11.40;99.90
70269;DHT22;58514;48.398;-4.274;2023-03-14T10:04:38;11.30;99.90
70269;DHT22;58514;48.398;-4.274;2023-03-14T10:07:07;11.30;99.90
70269;DHT22;58514;48.398;-4.274;2023-03-14T10:09:35;11.00;99.90
70269;DHT22;58514;48.398;-4.274;2023-03-14T10:12:01;10.90;99.90
70269;DHT22;58514;48.398;-4.274;2023-03-14T10:14:30;10.80;99.90
70269;DHT22;58514;48.398;-4.274;2023-03-14T10:16:59;10.70;99.90
70269;DHT22;58514;48.398;-4.274;2023-03-14T10:19:29;10.60;99.90
70269;DHT22;58514;48.398;-4.274;2023-03-14T10:21:54;10.50;99.90
70269;DHT22;58514;48.398;-4.274;2023-03-14T10:24:27;10.50;99.90
70269;DHT22;58514;48.398;-4.274;2023-03-14T10:26:54;10.40;99.90
70269;DHT22;58514;48.398;-4.274;2023-03-14T10:29:20;10.30;99.90
70269;DHT22;58514;48.398;-4.274;2023-03-14T10:31:48;10.30;99.90
70269;DHT22;58514;48.398;-4.274;2023-03-14T10:34:22;10.50;99.90
70269;DHT22;58514;48.398;-4.274;2023-03-14T10:36:52;10.60;99.90
70269;DHT22;58514;48.398;-4.274;2023-03-14T10:41:46;11.00;99.90
70269;DHT22;58514;48.398;-4.274;2023-03-14T10:44:12;11.10;99.90
70269;DHT22;58514;48.398;-4.274;2023-03-14T10:46:38;11.30;99.90
70269;DHT22;58514;48.398;-4.274;2023-03-14T10:49:04;11.40;99.90
70269;DHT22;58514;48.398;-4.274;2023-03-14T10:51:30;11.40;99.90
70269;DHT22;58514;48.398;-4.274;2023-03-14T10:54:03;11.50;99.90
70269;DHT22;58514;48.398;-4.274;2023-03-14T10:56:38;11.50;99.90
70269;DHT22;58514;48.398;-4.274;2023-03-14T10:59:06;11.60;99.90
70269;DHT22;58514;48.398;-4.274;2023-03-14T11:06:47;11.90;99.90
70269;DHT22;58514;48.398;-4.274;2023-03-14T11:09:18;11.90;99.90
70269;DHT22;58514;48.398;-4.274;2023-03-14T11:11:46;12.00;99.90
70269;DHT22;58514;48.398;-4.274;2023-03-14T11:17:21;12.10;99.90
70269;DHT22;58514;48.398;-4.274;2023-03-14T11:30:17;12.70;99.90
70269;DHT22;58514;48.398;-4.274;2023-03-14T11:32:44;12.90;99.90
70269;DHT22;58514;48.398;-4.274;2023-03-14T11:35:22;13.10;99.90
70269;DHT22;58514;48.398;-4.274;2023-03-14T11:37:53;13.40;99.90
70269;DHT22;58514;48.398;-4.274;2023-03-14T11:40:21;13.70;99.90
70269;DHT22;58514;48.398;-4.274;2023-03-14T11:42:59;14.00;99.90
70269;DHT22;58514;48.398;-4.274;2023-03-14T11:45:43;14.30;99.90
70269;DHT22;58514;48.398;-4.274;2023-03-14T11:50:38;14.90;99.90
70269;DHT22;58514;48.398;-4.274;2023-03-14T11:55:35;14.80;99.90
70269;DHT22;58514;48.398;-4.274;2023-03-14T11:58:05;14.90;99.90
70269;DHT22;58514;48.398;-4.274;2023-03-14T12:00:35;15.00;99.90
70269;DHT22;58514;48.398;-4.274;2023-03-14T12:10:48;15.90;99.90
70269;DHT22;58514;48.398;-4.274;2023-03-14T12:13:15;16.00;99.90
70269;DHT22;58514;48.398;-4.274;2023-03-14T12:15:46;16.10;99.90
70269;DHT22;58514;48.398;-4.274;2023-03-14T12:18:34;16.10;99.90
70269;DHT22;58514;48.398;-4.274;2023-03-14T12:21:11;16.40;99.90
70269;DHT22;58514;48.398;-4.274;2023-03-14T12:23:42;16.50;99.90
70269;DHT22;58514;48.398;-4.274;2023-03-14T12:28:37;17.10;99.90
70269;DHT22;58514;48.398;-4.274;2023-03-14T12:34:00;17.50;99.90
70269;DHT22;58514;48.398;-4.274;2023-03-14T12:41:44;17.70;99.90
70269;DHT22;58514;48.398;-4.274;2023-03-14T12:44:57;17.60;99.90
70269;DHT22;58514;48.398;-4.274;2023-03-14T12:47:00;17.30;99.90
70269;DHT22;58514;48.398;-4.274;2023-03-14T12:49:39;17.00;99.90
70269;DHT22;58514;48.398;-4.274;2023-03-14T12:52:10;16.80;99.90
70269;DHT22;58514;48.398;-4.274;2023-03-14T12:57:15;16.70;99.90
70269;DHT22;58514;48.398;-4.274;2023-03-14T12:59:45;16.80;99.90
70269;DHT22;58514;48.398;-4.274;2023-03-14T13:04:45;17.30;99.90
70269;DHT22;58514;48.398;-4.274;2023-03-14T13:07:34;17.50;99.90
70269;DHT22;58514;48.398;-4.274;2023-03-14T13:17:42;16.70;99.90
70269;DHT22;58514;48.398;-4.274;2023-03-14T13:20:13;16.50;99.90
70269;DHT22;58514;48.398;-4.274;2023-03-14T13:22:40;16.60;99.90
70269;DHT22;58514;48.398;-4.274;2023-03-14T13:25:11;16.60;99.90
70269;DHT22;58514;48.398;-4.274;2023-03-14T13:27:36;16.60;99.90
70269;DHT22;58514;48.398;-4.274;2023-03-14T13:30:11;16.80;99.90
70269;DHT22;58514;48.398;-4.274;2023-03-14T13:32:40;17.00;99.90
70269;DHT22;58514;48.398;-4.274;2023-03-14T13:35:14;17.10;99.90
70269;DHT22;58514;48.398;-4.274;2023-03-14T13:37:40;17.00;99.90
70269;DHT22;58514;48.398;-4.274;2023-03-14T13:40:17;16.90;99.90
70269;DHT22;58514;48.398;-4.274;2023-03-14T13:42:43;16.80;99.90
70269;DHT22;58514;48.398;-4.274;2023-03-14T13:45:09;16.70;99.90
70269;DHT22;58514;48.398;-4.274;2023-03-14T13:47:37;16.70;99.90
70269;DHT22;58514;48.398;-4.274;2023-03-14T13:50:04;16.80;99.90
70269;DHT22;58514;48.398;-4.274;2023-03-14T13:52:36;16.80;99.90
70269;DHT22;58514;48.398;-4.274;2023-03-14T13:55:02;16.80;99.90
70269;DHT22;58514;48.398;-4.274;2023-03-14T14:00:20;16.80;99.90
70269;DHT22;58514;48.398;-4.274;2023-03-14T14:02:47;16.70;99.90
70269;DHT22;58514;48.398;-4.274;2023-03-14T14:05:13;16.70;99.90
70269;DHT22;58514;48.398;-4.274;2023-03-14T14:07:39;16.60;99.90
70269;DHT22;58514;48.398;-4.274;2023-03-14T14:10:05;16.40;99.90
70269;DHT22;58514;48.398;-4.274;2023-03-14T14:12:35;16.30;99.90
70269;DHT22;58514;48.398;-4.274;2023-03-14T14:15:04;16.20;99.90
70269;DHT22;58514;48.398;-4.274;2023-03-14T14:17:32;16.10;99.90
70269;DHT22;58514;48.398;-4.274;2023-03-14T14:20:00;16.00;99.90
70269;DHT22;58514;48.398;-4.274;2023-03-14T14:22:26;15.90;99.90
70269;DHT22;58514;48.398;-4.274;2023-03-14T14:24:52;15.70;99.90
70269;DHT22;58514;48.398;-4.274;2023-03-14T14:27:19;15.50;99.90
70269;DHT22;58514;48.398;-4.274;2023-03-14T14:30:01;15.40;99.90
70269;DHT22;58514;48.398;-4.274;2023-03-14T14:32:34;15.30;99.90
70269;DHT22;58514;48.398;-4.274;2023-03-14T14:34:59;15.10;99.90
70269;DHT22;58514;48.398;-4.274;2023-03-14T14:37:26;15.00;99.90
70269;DHT22;58514;48.398;-4.274;2023-03-14T14:39:53;14.80;99.90
70269;DHT22;58514;48.398;-4.274;2023-03-14T14:42:19;14.70;99.90
70269;DHT22;58514;48.398;-4.274;2023-03-14T14:44:47;14.70;99.90
70269;DHT22;58514;48.398;-4.274;2023-03-14T14:47:17;14.70;99.90
70269;DHT22;58514;48.398;-4.274;2023-03-14T14:49:44;14.70;99.90
70269;DHT22;58514;48.398;-4.274;2023-03-14T14:54:38;14.40;99.90
70269;DHT22;58514;48.398;-4.274;2023-03-14T14:57:18;14.40;99.90
70269;DHT22;58514;48.398;-4.274;2023-03-14T14:59:43;14.40;99.90
70269;DHT22;58514;48.398;-4.274;2023-03-14T15:02:17;14.20;99.90
70269;DHT22;58514;48.398;-4.274;2023-03-14T15:04:49;14.20;99.90
70269;DHT22;58514;48.398;-4.274;2023-03-14T15:07:14;14.10;99.90
70269;DHT22;58514;48.398;-4.274;2023-03-14T15:09:41;14.00;99.90
70269;DHT22;58514;48.398;-4.274;2023-03-14T15:12:07;13.90;99.90
70269;DHT22;58514;48.398;-4.274;2023-03-14T15:14:33;13.80;99.90
70269;DHT22;58514;48.398;-4.274;2023-03-14T15:16:58;13.70;99.90
70269;DHT22;58514;48.398;-4.274;2023-03-14T15:19:24;13.60;99.90
70269;DHT22;58514;48.398;-4.274;2023-03-14T15:21:51;13.50;99.90
70269;DHT22;58514;48.398;-4.274;2023-03-14T15:24:17;13.40;99.90
70269;DHT22;58514;48.398;-4.274;2023-03-14T15:26:42;13.30;99.90
70269;DHT22;58514;48.398;-4.274;2023-03-14T15:29:10;13.20;99.90
70269;DHT22;58514;48.398;-4.274;2023-03-14T15:31:37;13.20;99.90
70269;DHT22;58514;48.398;-4.274;2023-03-14T15:34:03;13.10;99.90
70269;DHT22;58514;48.398;-4.274;2023-03-14T15:36:30;13.10;99.90
70269;DHT22;58514;48.398;-4.274;2023-03-14T15:38:56;13.00;99.90
70269;DHT22;58514;48.398;-4.274;2023-03-14T15:41:23;12.90;99.90
70269;DHT22;58514;48.398;-4.274;2023-03-14T15:43:48;12.90;99.90
70269;DHT22;58514;48.398;-4.274;2023-03-14T15:46:14;12.80;99.90
70269;DHT22;58514;48.398;-4.274;2023-03-14T15:48:40;12.70;99.90
70269;DHT22;58514;48.398;-4.274;2023-03-14T15:51:06;12.60;99.90
70269;DHT22;58514;48.398;-4.274;2023-03-14T15:53:32;12.50;99.90
70269;DHT22;58514;48.398;-4.274;2023-03-14T15:55:57;12.50;99.90
70269;DHT22;58514;48.398;-4.274;2023-03-14T15:58:23;12.40;99.90
70269;DHT22;58514;48.398;-4.274;2023-03-14T16:00:49;12.30;99.90
70269;DHT22;58514;48.398;-4.274;2023-03-14T16:03:15;12.30;99.90
70269;DHT22;58514;48.398;-4.274;2023-03-14T16:05:40;12.30;99.90
70269;DHT22;58514;48.398;-4.274;2023-03-14T16:08:06;12.20;99.90
70269;DHT22;58514;48.398;-4.274;2023-03-14T16:10:32;12.20;99.90
70269;DHT22;58514;48.398;-4.274;2023-03-14T16:12:58;12.10;99.90
70269;DHT22;58514;48.398;-4.274;2023-03-14T16:15:23;12.10;99.90
70269;DHT22;58514;48.398;-4.274;2023-03-14T16:17:54;12.00;99.90
70269;DHT22;58514;48.398;-4.274;2023-03-14T16:20:20;12.00;99.90
70269;DHT22;58514;48.398;-4.274;2023-03-14T16:22:46;11.90;99.90
70269;DHT22;58514;48.398;-4.274;2023-03-14T16:25:11;11.80;99.90
70269;DHT22;58514;48.398;-4.274;2023-03-14T16:27:37;11.80;99.90
70269;DHT22;58514;48.398;-4.274;2023-03-14T16:30:03;11.80;99.90
70269;DHT22;58514;48.398;-4.274;2023-03-14T16:32:29;11.70;99.90
70269;DHT22;58514;48.398;-4.274;2023-03-14T16:34:54;11.70;99.90
70269;DHT22;58514;48.398;-4.274;2023-03-14T16:37:21;11.70;99.90
70269;DHT22;58514;48.398;-4.274;2023-03-14T16:39:47;11.70;99.90
70269;DHT22;58514;48.398;-4.274;2023-03-14T16:42:14;11.60;99.90